createdAt,value
2018-01-17T00:00:38.346Z,0.70
2018-01-17T00:03:07.244Z,0.70
2018-01-17T00:05:39.519Z,0.60
2018-01-17T00:08:08.446Z,0.60
2018-01-17T00:10:37.460Z,0.60
2018-01-17T00:13:06.399Z,0.60
2018-01-17T00:15:35.297Z,0.60
2018-01-17T00:18:04.100Z,0.60
2018-01-17T00:20:32.868Z,0.60
2018-01-17T00:23:01.769Z,0.70
2018-01-17T00:25:34.061Z,0.60
2018-01-17T00:28:02.930Z,0.70
2018-01-17T00:30:31.813Z,0.80
2018-01-17T00:33:00.621Z,1.30
2018-01-17T00:35:29.461Z,1.70
2018-01-17T00:37:58.210Z,1.90
2018-01-17T00:40:26.701Z,2.00
2018-01-17T00:42:55.579Z,2.00
2018-01-17T00:45:26.119Z,1.90
2018-01-17T00:47:55.766Z,1.90
2018-01-17T00:50:24.570Z,1.90
2018-01-17T00:52:53.373Z,2.00
2018-01-17T00:55:22.167Z,2.10
2018-01-17T00:57:51.050Z,2.20
2018-01-17T01:00:19.773Z,2.30
2018-01-17T01:02:48.528Z,2.40
2018-01-17T01:05:18.088Z,2.30
2018-01-17T01:07:46.848Z,2.30
2018-01-17T01:10:15.617Z,2.30
2018-01-17T01:12:44.428Z,2.30
2018-01-17T01:15:13.196Z,2.30
2018-01-17T01:17:42.614Z,2.40
2018-01-17T01:20:11.393Z,2.50
2018-01-17T01:22:40.190Z,2.40
2018-01-17T01:25:08.961Z,2.50
2018-01-17T01:27:39.342Z,2.40
2018-01-17T01:30:08.186Z,2.40
2018-01-17T01:32:36.990Z,2.50
2018-01-17T01:35:05.728Z,2.50
2018-01-17T01:37:35.257Z,2.50
2018-01-17T01:40:05.061Z,2.50
2018-01-17T01:42:33.781Z,2.60
2018-01-17T01:45:02.558Z,2.60
2018-01-17T01:47:32.169Z,2.50
2018-01-17T01:50:01.824Z,2.60
2018-01-17T01:52:30.316Z,2.60
2018-01-17T01:54:59.101Z,2.60
2018-01-17T01:57:27.878Z,2.50
2018-01-17T01:59:57.054Z,2.40
2018-01-17T02:02:25.842Z,2.30
2018-01-17T02:04:54.634Z,2.20
2018-01-17T02:07:23.499Z,2.10
2018-01-17T02:09:52.310Z,2.00
2018-01-17T02:12:21.175Z,2.10
2018-01-17T02:14:50.821Z,2.20
2018-01-17T02:17:19.565Z,2.20
2018-01-17T02:19:48.381Z,2.30
2018-01-17T02:22:17.221Z,2.30
2018-01-17T02:24:46.199Z,2.30
2018-01-17T02:27:15.970Z,2.50
2018-01-17T02:29:45.599Z,2.20
2018-01-17T02:32:14.390Z,2.20
2018-01-17T02:34:43.268Z,2.50
2018-01-17T02:37:12.087Z,2.50
2018-01-17T02:39:52.025Z,2.50
2018-01-17T02:42:20.885Z,2.60
2018-01-17T02:44:49.679Z,2.70
2018-01-17T02:47:19.263Z,2.50
2018-01-17T02:49:51.856Z,2.40
2018-01-17T02:52:20.661Z,2.40
2018-01-17T02:54:49.450Z,2.40
2018-01-17T02:57:18.568Z,2.20
2018-01-17T02:59:47.325Z,2.20
2018-01-17T03:02:16.668Z,2.10
2018-01-17T03:04:45.495Z,1.90
2018-01-17T03:07:14.255Z,1.80
2018-01-17T03:09:43.026Z,1.70
2018-01-17T03:12:12.327Z,1.70
2018-01-17T03:14:41.219Z,1.60
2018-01-17T03:17:10.093Z,1.60
2018-01-17T03:19:38.931Z,1.60
2018-01-17T03:22:07.837Z,1.50
2018-01-17T03:24:36.725Z,1.50
2018-01-17T03:27:06.647Z,1.40
2018-01-17T03:29:36.277Z,1.40
2018-01-17T03:32:05.174Z,1.40
2018-01-17T03:34:34.455Z,1.40
2018-01-17T03:37:03.305Z,1.30
2018-01-17T03:39:33.259Z,1.30
2018-01-17T03:42:02.213Z,1.30
2018-01-17T03:44:31.288Z,1.30
2018-01-17T03:47:01.636Z,1.30
2018-01-17T03:49:31.664Z,1.20
2018-01-17T03:52:01.151Z,1.20
2018-01-17T03:54:31.992Z,1.20
2018-01-17T03:57:00.963Z,1.30
2018-01-17T03:59:30.208Z,1.30
2018-01-17T04:02:01.391Z,1.40
2018-01-17T04:04:32.367Z,1.30
2018-01-17T04:07:02.281Z,1.30
2018-01-17T04:09:32.069Z,1.20
2018-01-17T04:12:01.009Z,1.20
2018-01-17T04:14:31.921Z,1.10
2018-01-17T04:17:01.771Z,1.10
2018-01-17T04:19:31.944Z,1.00
2018-01-17T04:22:00.839Z,1.00
2018-01-17T04:24:31.038Z,1.00
2018-01-17T04:27:00.478Z,1.00
2018-01-17T04:29:30.122Z,1.00
2018-01-17T04:31:59.749Z,1.00
2018-01-17T04:34:31.702Z,0.90
2018-01-17T04:37:01.133Z,1.00
2018-01-17T04:39:34.209Z,1.20
2018-01-17T04:42:05.020Z,1.30
2018-01-17T04:44:34.858Z,1.20
2018-01-17T04:47:06.327Z,1.10
2018-01-17T04:49:38.862Z,1.10
2018-01-17T04:55:38.230Z,1.00
2018-01-17T04:58:10.997Z,0.90
2018-01-17T05:00:59.036Z,0.80
2018-01-17T05:07:00.592Z,0.70
2018-01-17T05:09:48.981Z,0.70
2018-01-17T05:12:20.554Z,0.60
2018-01-17T06:08:50.136Z,0.00
2018-01-17T06:11:18.969Z,0.00
2018-01-17T06:13:48.470Z,0.00
2018-01-17T06:16:17.282Z,-0.10
2018-01-17T06:18:46.389Z,-0.10
2018-01-17T06:27:14.357Z,0.00
2018-01-17T06:29:43.460Z,0.10
2018-01-17T06:32:11.801Z,0.10
2018-01-17T06:34:40.732Z,0.10
2018-01-17T06:37:12.553Z,0.00
2018-01-17T06:39:46.109Z,0.00
2018-01-17T06:42:14.940Z,0.20
2018-01-17T06:44:44.449Z,0.30
2018-01-17T06:47:13.911Z,0.50
2018-01-17T06:49:42.694Z,0.50
2018-01-17T06:52:11.507Z,0.50
2018-01-17T06:54:41.054Z,0.30
2018-01-17T06:57:09.885Z,0.30
2018-01-17T06:59:38.652Z,0.30
2018-01-17T07:02:07.433Z,0.30
2018-01-17T07:04:36.428Z,0.20
2018-01-17T07:07:05.205Z,0.20
2018-01-17T07:09:34.042Z,0.20
2018-01-17T07:12:02.816Z,0.20
2018-01-17T07:14:31.690Z,0.20
2018-01-17T07:17:01.083Z,0.30
2018-01-17T07:19:29.846Z,0.20
2018-01-17T07:21:59.467Z,0.30
2018-01-17T07:24:28.273Z,0.20
2018-01-17T07:26:57.073Z,0.40
2018-01-17T07:29:25.894Z,0.50
2018-01-17T07:31:54.632Z,0.50
2018-01-17T07:34:23.408Z,0.40
2018-01-17T07:36:52.965Z,0.50
2018-01-17T07:39:21.795Z,0.50
2018-01-17T07:41:50.629Z,0.50
2018-01-17T07:44:19.501Z,0.50
2018-01-17T07:46:48.273Z,0.50
2018-01-17T07:49:17.080Z,0.50
2018-01-17T07:51:45.881Z,0.60
2018-01-17T07:54:14.579Z,0.60
2018-01-17T07:56:43.450Z,0.60
2018-01-17T07:59:12.281Z,0.60
2018-01-17T08:01:41.040Z,0.70
2018-01-17T08:04:09.895Z,0.80
2018-01-17T08:06:38.711Z,0.80
2018-01-17T08:09:07.472Z,0.90
2018-01-17T08:11:36.285Z,0.90
2018-01-17T08:14:05.120Z,0.90
2018-01-17T08:16:33.602Z,0.90
2018-01-17T08:19:02.457Z,1.00
2018-01-17T08:21:35.278Z,1.00
2018-01-17T08:24:05.391Z,1.30
2018-01-17T08:26:35.486Z,1.30
2018-01-17T08:29:37.390Z,1.30
2018-01-17T08:32:06.485Z,1.50
2018-01-17T09:55:28.974Z,17.80
2018-01-17T09:58:00.118Z,17.00
2018-01-17T10:00:30.030Z,15.40
2018-01-17T10:02:58.619Z,16.00
2018-01-17T10:05:28.281Z,16.40
2018-01-17T10:07:56.882Z,16.50
2018-01-17T10:10:25.741Z,16.60
2018-01-17T10:12:54.311Z,16.60
2018-01-17T10:15:22.876Z,16.80
2018-01-17T10:17:51.350Z,17.30
2018-01-17T10:20:19.908Z,17.90
2018-01-17T10:22:48.506Z,17.40
2018-01-17T10:25:16.996Z,15.70
2018-01-17T10:27:45.493Z,15.90
2018-01-17T10:30:14.763Z,15.10
2018-01-17T10:32:43.298Z,15.00
2018-01-17T10:35:12.614Z,11.70
2018-01-17T10:37:41.249Z,11.60
2018-01-17T10:40:09.719Z,10.50
2018-01-17T10:42:38.403Z,10.50
2018-01-17T10:45:06.896Z,11.50
2018-01-17T10:47:37.949Z,11.30
2018-01-17T10:50:06.540Z,11.50
2018-01-17T10:52:35.097Z,11.50
2018-01-17T10:55:03.568Z,11.90
2018-01-17T10:57:32.099Z,13.00
2018-01-17T11:00:00.636Z,13.50
2018-01-17T11:02:29.131Z,13.40
2018-01-17T11:04:57.665Z,13.50
2018-01-17T11:07:26.189Z,11.70
2018-01-17T11:09:54.700Z,10.50
2018-01-17T11:12:23.230Z,9.20
2018-01-17T11:14:51.724Z,8.20
2018-01-17T11:17:20.207Z,7.30
2018-01-17T11:19:48.684Z,6.90
2018-01-17T11:22:17.152Z,6.70
2018-01-17T11:24:45.674Z,6.70
2018-01-17T11:27:14.426Z,7.10
2018-01-17T11:29:43.226Z,7.10
2018-01-17T11:32:12.680Z,7.10
2018-01-17T11:34:41.622Z,7.10
2018-01-17T11:37:10.355Z,6.90
2018-01-17T11:39:39.128Z,6.20
2018-01-17T11:42:07.852Z,5.60
2018-01-17T11:44:36.631Z,5.40
2018-01-17T11:47:05.421Z,5.20
2018-01-17T11:49:34.137Z,5.20
2018-01-17T11:52:02.877Z,4.90
2018-01-17T11:54:31.594Z,4.70
2018-01-17T11:57:00.323Z,5.00
2018-01-17T11:59:29.056Z,5.20
2018-01-17T12:01:57.798Z,5.40
2018-01-17T12:04:26.509Z,5.20
2018-01-17T12:06:55.282Z,5.30
2018-01-17T12:09:24.007Z,5.50
2018-01-17T12:11:52.809Z,5.80
2018-01-17T12:14:21.630Z,6.50
2018-01-17T12:16:50.367Z,6.50
2018-01-17T12:19:19.126Z,6.30
2018-01-17T12:21:48.673Z,7.60
2018-01-17T12:24:18.202Z,7.20
2018-01-17T12:26:46.957Z,7.20
2018-01-17T12:29:15.750Z,6.80
2018-01-17T12:31:44.512Z,6.90
2018-01-17T12:34:13.309Z,7.20
2018-01-17T12:36:42.089Z,7.70
2018-01-17T12:39:11.027Z,7.40
2018-01-17T12:41:39.788Z,7.60
2018-01-17T12:44:09.370Z,7.40
2018-01-17T12:46:39.107Z,6.80
2018-01-17T12:49:07.976Z,6.80
2018-01-17T12:51:37.766Z,6.50
2018-01-17T12:54:07.398Z,6.50
2018-01-17T12:56:36.624Z,6.40
2018-01-17T12:59:05.493Z,6.20
2018-01-17T13:01:35.133Z,5.90
2018-01-17T13:04:07.399Z,5.60
2018-01-17T13:06:37.257Z,5.70
2018-01-17T13:09:08.649Z,5.70
2018-01-17T13:11:37.466Z,5.70
2018-01-17T13:14:07.137Z,5.70
2018-01-17T13:16:36.713Z,5.70
2018-01-17T13:19:05.837Z,5.80
2018-01-17T13:21:35.665Z,5.40
2018-01-17T13:24:04.422Z,5.40
2018-01-17T13:26:33.213Z,5.10
2018-01-17T13:29:02.036Z,5.10
2018-01-17T13:31:32.384Z,4.90
2018-01-17T13:37:23.388Z,4.70
2018-01-17T13:39:58.037Z,4.70
2018-01-17T13:42:28.840Z,4.70
2018-01-17T13:45:16.168Z,4.80
2018-01-17T13:51:10.523Z,5.30
2018-01-17T13:53:54.614Z,5.70
2018-01-17T14:02:47.517Z,5.90
2018-01-17T14:05:55.029Z,5.80
2018-01-17T16:22:19.165Z,2.90
2018-01-17T16:24:54.651Z,2.90
2018-01-17T16:27:25.637Z,2.80
2018-01-17T16:33:09.680Z,2.60
2018-01-17T16:44:25.650Z,2.10
2018-01-17T16:54:27.693Z,1.90
2018-01-17T16:56:57.533Z,1.90
2018-01-17T16:59:27.045Z,2.00
2018-01-17T17:02:21.599Z,2.00
2018-01-17T17:04:54.812Z,1.90
2018-01-17T17:45:14.984Z,-0.30
2018-01-17T17:47:43.775Z,-0.50
2018-01-17T17:50:13.837Z,-0.60
2018-01-17T17:52:42.890Z,-0.70
